createdAt,value
2019-01-31T00:24:06.711Z,100.00
2019-01-31T00:26:43.731Z,100.00
2019-01-31T00:29:29.973Z,100.00
2019-01-31T00:32:03.894Z,100.00
2019-01-31T00:34:35.356Z,100.00
2019-01-31T00:37:18.874Z,100.00
2019-01-31T00:39:52.783Z,100.00
2019-01-31T00:42:33.372Z,100.00
2019-01-31T00:45:22.760Z,100.00
2019-01-31T00:48:06.061Z,100.00
2019-01-31T00:50:40.077Z,100.00
2019-01-31T00:53:23.546Z,100.00
2019-01-31T00:56:11.830Z,100.00
2019-01-31T00:58:46.061Z,100.00
2019-01-31T01:01:29.402Z,100.00
2019-01-31T01:04:03.632Z,100.00
2019-01-31T01:06:57.404Z,100.00
2019-01-31T01:09:51.435Z,100.00
2019-01-31T01:12:28.850Z,100.00
2019-01-31T01:15:00.533Z,100.00
2019-01-31T01:17:37.870Z,100.00
2019-01-31T01:20:24.621Z,100.00
2019-01-31T01:23:17.552Z,100.00
2019-01-31T01:26:10.253Z,100.00
2019-01-31T01:28:53.521Z,100.00
2019-01-31T01:31:49.127Z,100.00
2019-01-31T01:34:23.154Z,99.09
2019-01-31T01:36:57.738Z,100.00
2019-01-31T01:39:29.200Z,100.00
2019-01-31T01:42:05.940Z,100.00
2019-01-31T01:44:56.488Z,100.00
2019-01-31T01:47:30.928Z,100.00
2019-01-31T01:50:02.402Z,100.00
2019-01-31T01:52:48.977Z,100.00
2019-01-31T01:55:23.503Z,99.10
2019-01-31T01:58:28.845Z,99.95
2019-01-31T02:01:15.322Z,100.00
2019-01-31T02:04:07.910Z,99.55
2019-01-31T02:06:48.869Z,100.00
2019-01-31T02:09:29.973Z,100.00
2019-01-31T02:12:11.230Z,100.00
2019-01-31T02:15:01.854Z,100.00
2019-01-31T02:17:48.282Z,100.00
2019-01-31T02:20:22.474Z,100.00
2019-01-31T02:23:06.279Z,100.00
2019-01-31T02:25:46.404Z,100.00
2019-01-31T02:28:30.013Z,100.00
2019-01-31T02:31:19.401Z,100.00
2019-01-31T02:33:56.687Z,100.00
2019-01-31T02:36:46.005Z,100.00
2019-01-31T02:39:43.164Z,100.00
2019-01-31T02:42:09.176Z,100.00
2019-01-31T02:45:06.359Z,100.00
2019-01-31T02:47:46.945Z,100.00
2019-01-31T02:50:42.642Z,100.00
2019-01-31T02:53:28.997Z,100.00
2019-01-31T02:56:09.213Z,100.00
2019-01-31T02:58:43.344Z,100.00
2019-01-31T03:01:26.744Z,100.00
2019-01-31T03:04:10.243Z,100.00
2019-01-31T03:06:44.578Z,100.00
2019-01-31T03:09:54.324Z,97.10
2019-01-31T03:12:28.214Z,97.05
2019-01-31T03:14:59.653Z,98.21
2019-01-31T03:18:04.358Z,99.52
2019-01-31T03:20:48.044Z,98.79
2019-01-31T03:23:45.302Z,99.23
2019-01-31T03:26:25.601Z,96.76
2019-01-31T03:29:12.252Z,98.86
2019-01-31T03:31:55.918Z,98.85
2019-01-31T03:34:36.106Z,95.13
2019-01-31T03:37:19.590Z,95.72
2019-01-31T03:39:51.046Z,99.31
2019-01-31T03:42:37.395Z,98.54
2019-01-31T03:45:31.228Z,98.86
2019-01-31T03:48:11.800Z,100.00
2019-01-31T03:51:00.332Z,99.88
2019-01-31T03:53:34.755Z,100.00
2019-01-31T03:56:11.980Z,100.00
2019-01-31T03:58:43.426Z,100.00
2019-01-31T04:01:30.100Z,100.00
2019-01-31T04:04:01.568Z,100.00
2019-01-31T04:06:30.036Z,100.00
2019-01-31T04:08:58.441Z,98.88
2019-01-31T04:11:26.839Z,100.00
2019-01-31T04:13:55.573Z,98.45
2019-01-31T04:16:23.966Z,100.00
2019-01-31T04:18:52.636Z,97.54
2019-01-31T04:21:21.267Z,97.22
2019-01-31T04:23:50.012Z,97.35
2019-01-31T04:26:18.698Z,100.00
2019-01-31T04:28:47.089Z,100.00
2019-01-31T04:31:15.490Z,100.00
2019-01-31T04:33:44.157Z,99.40
2019-01-31T04:36:12.825Z,98.88
2019-01-31T04:38:41.219Z,100.00
2019-01-31T04:41:09.901Z,98.79
2019-01-31T04:43:38.282Z,98.50
2019-01-31T04:46:06.672Z,100.00
2019-01-31T04:48:35.201Z,99.61
2019-01-31T04:51:03.813Z,100.00
2019-01-31T04:53:32.501Z,99.92
2019-01-31T04:56:00.889Z,98.73
2019-01-31T04:58:29.283Z,97.72
2019-01-31T05:00:57.831Z,96.95
2019-01-31T05:03:26.476Z,96.81
2019-01-31T05:05:54.867Z,97.49
2019-01-31T05:08:23.358Z,99.40
2019-01-31T05:10:51.733Z,99.52
2019-01-31T05:13:20.367Z,100.00
2019-01-31T05:15:48.766Z,100.00
2019-01-31T05:18:17.154Z,100.00
2019-01-31T05:20:45.559Z,100.00
2019-01-31T05:23:13.953Z,100.00
2019-01-31T05:25:42.358Z,100.00
2019-01-31T05:28:10.748Z,100.00
2019-01-31T05:30:39.227Z,100.00
2019-01-31T05:33:07.621Z,100.00
2019-01-31T05:35:36.266Z,100.00
2019-01-31T05:38:04.676Z,100.00
2019-01-31T05:40:33.075Z,100.00
2019-01-31T05:43:05.935Z,100.00
2019-01-31T05:45:34.968Z,100.00
2019-01-31T05:48:03.446Z,100.00
2019-01-31T05:50:31.836Z,100.00
2019-01-31T05:53:00.227Z,100.00
2019-01-31T05:55:28.630Z,100.00
2019-01-31T05:57:57.317Z,100.00
2019-01-31T06:00:30.412Z,100.00
2019-01-31T06:02:58.802Z,100.00
2019-01-31T06:05:27.212Z,100.00
2019-01-31T06:07:55.598Z,100.00
2019-01-31T06:10:24.009Z,99.14
2019-01-31T06:12:52.397Z,99.47
2019-01-31T06:15:20.854Z,94.65
2019-01-31T06:17:50.154Z,94.69
2019-01-31T06:20:24.309Z,96.08
2019-01-31T06:22:52.713Z,92.19
2019-01-31T06:25:21.177Z,92.74
2019-01-31T06:27:49.716Z,93.66
2019-01-31T06:30:18.775Z,93.33
2019-01-31T06:32:47.513Z,92.51
2019-01-31T06:35:16.021Z,90.26
2019-01-31T06:37:44.680Z,90.87
2019-01-31T06:40:19.064Z,92.37
2019-01-31T06:42:47.763Z,91.42
2019-01-31T06:45:18.211Z,91.99
2019-01-31T06:47:46.598Z,94.40
2019-01-31T06:50:15.381Z,89.98
2019-01-31T06:52:44.010Z,90.55
2019-01-31T06:55:13.574Z,92.88
2019-01-31T06:57:42.208Z,90.59
2019-01-31T07:00:13.982Z,93.28
2019-01-31T07:02:42.384Z,91.46
2019-01-31T07:05:10.832Z,89.74
2019-01-31T07:07:39.230Z,91.01
2019-01-31T07:10:16.856Z,92.94
2019-01-31T07:12:45.256Z,90.39
2019-01-31T07:15:13.981Z,89.88
2019-01-31T07:17:42.452Z,90.30
2019-01-31T07:20:13.577Z,91.09
2019-01-31T07:22:41.986Z,91.69
2019-01-31T07:25:13.785Z,89.32
2019-01-31T07:27:42.176Z,90.49
2019-01-31T07:30:13.654Z,93.39
2019-01-31T07:32:42.305Z,100.00
2019-01-31T07:35:13.251Z,100.00
2019-01-31T07:37:42.031Z,100.00
2019-01-31T07:40:13.370Z,100.00
2019-01-31T07:42:41.771Z,100.00
2019-01-31T07:45:16.374Z,100.00
2019-01-31T07:47:44.764Z,100.00
2019-01-31T07:50:16.409Z,100.00
2019-01-31T07:52:44.799Z,100.00
2019-01-31T07:55:13.605Z,100.00
2019-01-31T07:57:42.218Z,100.00
2019-01-31T08:00:19.159Z,100.00
2019-01-31T08:02:47.552Z,100.00
2019-01-31T08:05:21.443Z,100.00
2019-01-31T08:07:51.218Z,100.00
2019-01-31T08:10:28.076Z,100.00
2019-01-31T08:12:56.605Z,100.00
2019-01-31T08:15:25.076Z,100.00
2019-01-31T08:17:53.534Z,100.00
2019-01-31T08:20:21.930Z,100.00
2019-01-31T08:22:50.387Z,100.00
2019-01-31T08:25:21.125Z,100.00
2019-01-31T08:27:50.793Z,100.00
2019-01-31T08:30:21.868Z,100.00
2019-01-31T08:32:50.492Z,100.00
2019-01-31T08:35:19.042Z,100.00
2019-01-31T08:37:47.436Z,100.00
2019-01-31T08:40:16.140Z,100.00
2019-01-31T08:42:44.825Z,100.00
2019-01-31T08:45:14.655Z,100.00
2019-01-31T08:47:43.136Z,100.00
2019-01-31T08:50:16.788Z,100.00
2019-01-31T08:52:45.243Z,100.00
2019-01-31T08:55:14.030Z,100.00
2019-01-31T08:57:42.980Z,100.00
2019-01-31T09:00:23.852Z,100.00
2019-01-31T09:02:52.241Z,100.00
2019-01-31T09:05:20.702Z,100.00
2019-01-31T09:07:49.173Z,100.00
2019-01-31T09:10:29.147Z,100.00
2019-01-31T09:12:58.493Z,100.00
2019-01-31T09:15:27.157Z,100.00
2019-01-31T09:17:56.018Z,100.00
2019-01-31T09:20:39.703Z,100.00
2019-01-31T09:23:29.454Z,100.00
2019-01-31T09:26:17.628Z,100.00
2019-01-31T09:28:49.070Z,100.00
2019-01-31T09:31:29.511Z,100.00
2019-01-31T09:34:03.815Z,100.00
2019-01-31T09:36:41.305Z,100.00
2019-01-31T09:39:33.844Z,100.00
2019-01-31T09:42:10.558Z,100.00
2019-01-31T09:45:01.530Z,100.00
2019-01-31T09:47:38.991Z,100.00
2019-01-31T09:50:16.341Z,100.00
2019-01-31T09:53:12.341Z,100.00
2019-01-31T09:56:07.628Z,100.00
2019-01-31T09:58:56.642Z,100.00
2019-01-31T10:01:44.857Z,100.00
2019-01-31T10:04:19.116Z,100.00
2019-01-31T10:07:23.901Z,100.00
2019-01-31T10:10:20.767Z,100.00
2019-01-31T10:13:11.996Z,100.00
2019-01-31T10:15:46.171Z,100.00
2019-01-31T10:18:29.473Z,100.00
2019-01-31T10:21:16.230Z,100.00
2019-01-31T10:24:14.893Z,99.91
2019-01-31T10:26:49.347Z,100.00
2019-01-31T10:29:54.084Z,100.00
2019-01-31T10:32:27.451Z,100.00
2019-01-31T10:35:08.018Z,97.61
2019-01-31T10:37:48.605Z,100.00
2019-01-31T10:40:31.780Z,100.00
2019-01-31T10:43:12.476Z,99.54
2019-01-31T10:45:50.068Z,98.40
2019-01-31T10:48:33.802Z,98.96
2019-01-31T10:51:26.186Z,99.20
2019-01-31T10:54:12.864Z,96.11
2019-01-31T10:56:50.136Z,94.79
2019-01-31T10:59:38.029Z,95.92
2019-01-31T11:02:29.044Z,96.45
2019-01-31T11:05:24.719Z,92.59
2019-01-31T11:08:07.980Z,91.04
2019-01-31T11:10:42.457Z,91.17
2019-01-31T11:13:13.903Z,94.04
2019-01-31T11:15:45.346Z,91.91
2019-01-31T11:18:34.323Z,93.99
2019-01-31T11:21:21.979Z,94.20
2019-01-31T11:23:53.414Z,94.04
2019-01-31T11:26:45.917Z,93.83
2019-01-31T11:29:17.357Z,93.49
2019-01-31T11:31:51.580Z,94.83
2019-01-31T11:34:35.285Z,93.16
2019-01-31T11:37:09.555Z,94.66
2019-01-31T11:39:52.883Z,92.36
2019-01-31T11:42:26.755Z,90.25
2019-01-31T11:45:19.329Z,91.70
2019-01-31T11:48:13.468Z,91.05
2019-01-31T11:50:50.832Z,89.77
2019-01-31T11:53:37.323Z,89.82
2019-01-31T11:56:42.363Z,91.41
2019-01-31T11:59:10.765Z,94.95
2019-01-31T12:01:39.543Z,88.94
2019-01-31T12:04:08.833Z,88.62
2019-01-31T12:06:37.619Z,85.06
2019-01-31T12:09:09.059Z,81.19
2019-01-31T12:11:37.447Z,79.13
2019-01-31T12:14:06.402Z,79.17
2019-01-31T12:16:34.794Z,79.68
2019-01-31T12:19:03.503Z,80.58
2019-01-31T12:21:31.974Z,82.09
2019-01-31T12:24:00.478Z,83.04
2019-01-31T12:26:28.820Z,81.79
2019-01-31T12:28:57.220Z,83.59
2019-01-31T12:31:25.595Z,81.25
2019-01-31T12:33:53.999Z,79.47
2019-01-31T12:36:22.380Z,79.52
2019-01-31T12:38:51.149Z,79.30
2019-01-31T12:41:19.540Z,79.70
2019-01-31T12:43:47.924Z,76.98
2019-01-31T12:46:17.105Z,75.76
2019-01-31T12:48:45.482Z,74.85
2019-01-31T12:51:14.020Z,75.02
2019-01-31T12:53:42.404Z,75.30
2019-01-31T12:56:11.340Z,74.39
2019-01-31T12:58:39.737Z,74.54
2019-01-31T13:01:08.356Z,73.81
2019-01-31T13:03:37.089Z,74.23
2019-01-31T13:06:05.607Z,74.04
2019-01-31T13:08:34.000Z,72.79
2019-01-31T13:11:02.394Z,74.33
2019-01-31T13:13:30.775Z,72.99
2019-01-31T13:15:59.545Z,72.83
2019-01-31T13:18:28.233Z,72.71
2019-01-31T13:20:56.861Z,72.30
2019-01-31T13:23:25.366Z,73.73
2019-01-31T13:25:54.093Z,73.79
2019-01-31T13:28:22.483Z,72.62
2019-01-31T13:30:50.870Z,71.82
2019-01-31T13:33:59.171Z,69.06
2019-01-31T13:36:27.632Z,70.54
2019-01-31T13:38:56.414Z,70.69
2019-01-31T13:41:24.869Z,71.27
2019-01-31T13:43:57.714Z,71.13
2019-01-31T13:46:24.123Z,72.58
2019-01-31T13:48:52.510Z,72.39
2019-01-31T13:51:20.971Z,73.90
2019-01-31T13:53:49.761Z,71.26
2019-01-31T13:56:18.143Z,73.00
2019-01-31T13:58:46.550Z,73.76
2019-01-31T14:01:14.928Z,72.58
2019-01-31T14:03:43.595Z,71.75
2019-01-31T14:06:12.276Z,71.70
2019-01-31T14:08:40.963Z,68.26
2019-01-31T14:11:09.357Z,67.07
2019-01-31T14:13:38.030Z,65.30
2019-01-31T14:16:06.580Z,66.91
2019-01-31T14:18:34.960Z,67.55
2019-01-31T14:21:03.393Z,63.88
2019-01-31T14:23:31.792Z,65.22
2019-01-31T14:26:00.433Z,66.90
2019-01-31T14:28:29.134Z,68.04
2019-01-31T14:30:57.523Z,67.99
2019-01-31T14:36:15.059Z,69.53
2019-01-31T14:38:43.530Z,69.21
2019-01-31T14:41:12.312Z,67.47
2019-01-31T14:43:40.960Z,64.51
2019-01-31T14:46:09.620Z,66.77
2019-01-31T14:48:38.307Z,67.28
2019-01-31T14:51:06.757Z,70.01
2019-01-31T14:53:35.155Z,69.41
2019-01-31T14:56:03.612Z,69.28
2019-01-31T14:58:32.322Z,71.70
2019-01-31T15:01:00.762Z,69.63
2019-01-31T15:03:29.170Z,69.08
2019-01-31T15:05:57.583Z,68.32
2019-01-31T15:08:26.034Z,67.42
2019-01-31T15:10:54.525Z,68.52
2019-01-31T15:13:22.899Z,68.63
2019-01-31T15:15:51.373Z,69.90
2019-01-31T15:18:19.763Z,70.90
2019-01-31T15:20:48.153Z,71.15
2019-01-31T15:23:16.925Z,71.08
2019-01-31T15:25:45.550Z,66.34
2019-01-31T15:28:14.295Z,68.28
2019-01-31T15:30:42.690Z,69.23
2019-01-31T15:33:12.424Z,68.98
2019-01-31T15:35:41.260Z,73.13
2019-01-31T15:38:09.714Z,72.50
2019-01-31T15:40:41.424Z,72.20
2019-01-31T15:43:09.881Z,74.74
2019-01-31T15:45:38.349Z,76.50
2019-01-31T15:48:10.546Z,78.86
2019-01-31T15:50:38.762Z,79.89
2019-01-31T15:53:07.611Z,77.81
2019-01-31T15:55:36.070Z,78.34
2019-01-31T15:58:05.608Z,80.46
2019-01-31T16:00:41.746Z,84.01
2019-01-31T16:03:12.188Z,80.92
2019-01-31T16:05:40.974Z,81.24
2019-01-31T16:08:10.434Z,82.74
2019-01-31T16:10:38.969Z,82.20
2019-01-31T16:13:08.283Z,82.41
2019-01-31T16:15:36.810Z,83.25
2019-01-31T16:18:07.475Z,85.54
2019-01-31T16:20:35.866Z,85.08
2019-01-31T16:23:04.813Z,86.73
2019-01-31T16:25:33.269Z,88.14
2019-01-31T16:28:01.667Z,87.26
2019-01-31T16:30:30.053Z,87.42
2019-01-31T16:32:58.434Z,88.75
2019-01-31T16:35:26.832Z,88.50
2019-01-31T16:37:55.555Z,89.71
2019-01-31T16:40:24.721Z,90.87
2019-01-31T16:42:53.183Z,90.14
2019-01-31T16:45:22.097Z,90.34
2019-01-31T16:47:50.618Z,93.34
2019-01-31T16:50:23.524Z,97.11
2019-01-31T16:52:51.982Z,98.70
2019-01-31T16:55:26.340Z,95.49
2019-01-31T16:57:56.066Z,95.69
2019-01-31T17:00:32.875Z,92.20
2019-01-31T17:03:01.255Z,92.02
2019-01-31T17:05:31.878Z,93.34
2019-01-31T17:08:00.956Z,93.24
2019-01-31T17:10:29.755Z,95.20
2019-01-31T17:12:58.292Z,96.06
2019-01-31T17:15:27.245Z,95.04
2019-01-31T17:17:55.763Z,94.91
2019-01-31T17:20:38.294Z,96.77
2019-01-31T17:23:06.766Z,94.67
2019-01-31T17:25:35.480Z,96.15
2019-01-31T17:28:04.881Z,99.57
2019-01-31T17:30:33.568Z,97.05
2019-01-31T17:33:01.970Z,94.25
2019-01-31T17:35:30.364Z,96.27
2019-01-31T17:37:58.755Z,96.75
2019-01-31T17:40:29.707Z,100.00
2019-01-31T17:42:58.098Z,99.86
2019-01-31T17:45:30.515Z,99.76
2019-01-31T17:47:56.842Z,98.44
2019-01-31T17:50:25.537Z,98.44
2019-01-31T17:52:54.090Z,97.23
2019-01-31T17:55:24.511Z,97.95
2019-01-31T17:57:52.954Z,98.30
2019-01-31T18:00:31.830Z,100.00
2019-01-31T18:03:00.234Z,96.54
2019-01-31T18:05:28.616Z,95.59
2019-01-31T18:07:57.005Z,97.68
2019-01-31T18:10:25.754Z,100.00
2019-01-31T18:12:54.141Z,99.75
2019-01-31T18:15:22.930Z,100.00
2019-01-31T18:17:51.557Z,100.00
2019-01-31T18:20:21.797Z,100.00
2019-01-31T18:22:50.269Z,98.97
2019-01-31T18:25:18.659Z,98.97
2019-01-31T18:27:47.043Z,98.92
2019-01-31T18:30:33.368Z,98.97
2019-01-31T18:33:02.052Z,99.01
2019-01-31T18:35:30.805Z,96.31
2019-01-31T18:37:59.535Z,99.05
2019-01-31T18:40:30.441Z,100.00
2019-01-31T18:42:59.148Z,98.79
2019-01-31T18:45:29.672Z,98.76
2019-01-31T18:47:58.318Z,97.93
2019-01-31T18:50:29.920Z,96.31
2019-01-31T18:52:58.813Z,94.74
2019-01-31T18:55:28.035Z,94.73
2019-01-31T18:57:56.678Z,96.38
2019-01-31T19:00:30.545Z,97.74
2019-01-31T19:02:58.951Z,99.11
2019-01-31T19:05:28.090Z,99.07
2019-01-31T19:07:56.479Z,97.06
2019-01-31T19:10:25.052Z,96.66
2019-01-31T19:12:53.935Z,96.00
2019-01-31T19:15:24.355Z,94.35
2019-01-31T19:17:53.042Z,96.14
2019-01-31T19:20:32.394Z,93.34
2019-01-31T19:23:02.834Z,93.86
2019-01-31T19:25:32.322Z,94.76
2019-01-31T19:28:01.028Z,93.43
2019-01-31T19:30:34.697Z,95.86
2019-01-31T19:33:03.806Z,95.12
2019-01-31T19:35:32.273Z,95.76
2019-01-31T19:38:02.416Z,94.60
2019-01-31T19:40:36.477Z,95.03
2019-01-31T19:43:05.808Z,94.40
2019-01-31T19:45:39.820Z,95.04
2019-01-31T19:48:08.857Z,94.42
2019-01-31T19:50:37.699Z,94.55
2019-01-31T19:53:06.711Z,95.27
2019-01-31T19:55:35.705Z,95.00
2019-01-31T19:58:04.897Z,95.65
2019-01-31T20:00:33.584Z,94.08
2019-01-31T20:03:02.353Z,94.88
2019-01-31T20:05:30.894Z,93.52
2019-01-31T20:08:01.375Z,93.74
2019-01-31T20:10:31.758Z,93.88
2019-01-31T20:13:00.626Z,93.39
2019-01-31T20:15:30.206Z,93.56
2019-01-31T20:17:58.933Z,92.83
2019-01-31T20:20:30.590Z,93.00
2019-01-31T20:22:59.852Z,93.17
2019-01-31T20:25:30.179Z,92.71
2019-01-31T20:27:59.399Z,93.31
2019-01-31T20:30:33.260Z,94.86
2019-01-31T20:33:02.545Z,96.23
2019-01-31T20:35:31.771Z,93.55
2019-01-31T20:38:01.071Z,97.66
2019-01-31T20:40:32.533Z,97.17
2019-01-31T20:43:00.933Z,94.76
2019-01-31T20:45:29.540Z,95.64
2019-01-31T20:47:58.013Z,97.47
2019-01-31T20:51:06.580Z,95.60
2019-01-31T20:53:35.296Z,97.27
2019-01-31T20:56:03.745Z,95.58
2019-01-31T20:58:32.143Z,97.19
2019-01-31T21:01:00.544Z,97.60
2019-01-31T21:03:49.606Z,96.04
2019-01-31T21:06:18.643Z,99.57
2019-01-31T21:08:47.824Z,97.66
2019-01-31T21:11:36.840Z,97.48
2019-01-31T21:14:45.343Z,99.51
2019-01-31T21:17:16.726Z,99.34
2019-01-31T21:22:33.175Z,97.53
2019-01-31T21:25:01.577Z,96.35
2019-01-31T21:27:29.971Z,98.38
2019-01-31T21:29:58.366Z,97.50
2019-01-31T21:32:27.063Z,96.44
2019-01-31T21:34:55.693Z,95.96
2019-01-31T21:37:24.096Z,98.80
2019-01-31T21:39:52.553Z,95.63
2019-01-31T21:42:21.299Z,97.98
2019-01-31T21:44:49.985Z,99.40
2019-01-31T21:47:18.380Z,99.77
2019-01-31T21:49:46.778Z,98.31
2019-01-31T21:52:15.426Z,96.57
2019-01-31T21:54:43.830Z,96.46
2019-01-31T21:57:12.289Z,100.00
2019-01-31T21:59:40.687Z,97.68
2019-01-31T22:02:09.080Z,98.33
2019-01-31T22:04:37.486Z,95.95
2019-01-31T22:07:05.875Z,95.75
2019-01-31T22:09:53.620Z,96.95
2019-01-31T22:12:22.011Z,96.14
2019-01-31T22:14:50.634Z,95.46
2019-01-31T22:17:19.280Z,96.44
2019-01-31T22:19:47.663Z,93.43
2019-01-31T22:22:35.649Z,92.91
2019-01-31T22:25:43.958Z,90.32
2019-01-31T22:28:12.351Z,90.77
2019-01-31T22:30:40.741Z,88.94
2019-01-31T22:33:09.203Z,91.29
2019-01-31T22:35:37.593Z,89.76
2019-01-31T22:38:45.904Z,88.40
2019-01-31T22:41:14.299Z,86.86
2019-01-31T22:43:43.012Z,87.84
2019-01-31T22:46:11.404Z,87.55
2019-01-31T22:48:40.040Z,87.94
2019-01-31T22:51:08.763Z,85.29
2019-01-31T22:53:37.452Z,85.04
2019-01-31T22:56:05.903Z,84.17
2019-01-31T22:58:34.631Z,83.04
2019-01-31T23:01:42.942Z,81.82
2019-01-31T23:04:11.618Z,82.59
2019-01-31T23:06:40.058Z,81.07
2019-01-31T23:09:48.369Z,83.03
2019-01-31T23:12:16.755Z,81.74
2019-01-31T23:14:45.141Z,80.01
2019-01-31T23:17:13.544Z,79.71
2019-01-31T23:19:41.938Z,80.49
2019-01-31T23:22:10.336Z,81.21
2019-01-31T23:24:38.992Z,78.81
2019-01-31T23:27:07.693Z,80.35
2019-01-31T23:29:36.070Z,79.91
2019-01-31T23:32:44.639Z,80.94
2019-01-31T23:35:13.103Z,81.65
2019-01-31T23:37:41.748Z,84.26
2019-01-31T23:40:50.065Z,86.61
2019-01-31T23:43:18.742Z,84.53
2019-01-31T23:45:47.135Z,83.36
2019-01-31T23:48:15.528Z,82.32
2019-01-31T23:50:43.931Z,81.69
2019-01-31T23:53:12.322Z,81.36
2019-01-31T23:55:40.800Z,82.62
2019-01-31T23:58:09.465Z,81.15
